Time;durP1;ratioP1;P1;durP2;ratioP2;P2;SDS_P1;SDS_P2;PMS_P1;PMS_P2;Temp;Humidity;BMP_temperature;BMP_pressure;BME280_temperature;BME280_humidity;BME280_pressure;Samples;Min_cycle;Max_cycle;Signal;HPM_P1;HPM_P2
2022/05/18 00:02:06;;;;;;;10.18;7.43;;;;;;;17.62;69.08;101662.19;5050660;28;20183;-91
2022/05/18 00:04:32;;;;;;;10.85;6.88;;;;;;;17.60;69.16;101660.59;5047550;28;20072;-92
2022/05/18 00:06:57;;;;;;;9.98;6.78;;;;;;;17.56;69.46;101668.00;5053097;28;20041;-91
2022/05/18 00:09:22;;;;;;;10.32;7.10;;;;;;;17.55;69.38;101668.09;5053569;28;20050;-91
2022/05/18 00:11:48;;;;;;;10.02;6.68;;;;;;;17.48;69.27;101664.97;5056903;28;20020;-91
2022/05/18 00:14:14;;;;;;;13.68;6.88;;;;;;;17.46;69.34;101661.50;5057493;28;20052;-90
2022/05/18 00:16:40;;;;;;;9.95;6.57;;;;;;;17.42;69.70;101663.50;5052958;28;20028;-92
2022/05/18 00:19:05;;;;;;;10.45;6.72;;;;;;;17.43;69.52;101669.75;5066039;28;20375;-92
2022/05/18 00:21:31;;;;;;;8.27;6.65;;;;;;;17.39;69.40;101671.81;5062812;28;20033;-91
2022/05/18 00:23:58;;;;;;;9.85;6.90;;;;;;;17.38;69.94;101671.91;5076763;28;20031;-91
2022/05/18 00:26:24;;;;;;;14.40;7.05;;;;;;;17.30;70.22;101680.47;5072206;28;20025;-92
2022/05/18 00:28:49;;;;;;;7.63;6.45;;;;;;;17.27;70.63;101680.69;5065565;28;20040;-91
2022/05/18 00:31:18;;;;;;;10.45;6.90;;;;;;;17.26;70.53;101683.47;5062278;28;20024;-91
2022/05/18 00:33:43;;;;;;;11.55;6.53;;;;;;;17.21;70.28;101686.47;5067484;28;20584;-92
2022/05/18 00:36:09;;;;;;;14.38;7.22;;;;;;;17.15;70.49;101682.34;5061225;28;20123;-90
2022/05/18 00:38:34;;;;;;;9.70;7.75;;;;;;;17.08;70.51;101672.09;5073813;28;20042;-91
2022/05/18 00:40:59;;;;;;;9.60;6.60;;;;;;;17.13;70.57;101678.03;5072994;28;20067;-91
2022/05/18 00:43:31;;;;;;;8.82;6.57;;;;;;;17.05;70.77;101685.72;5075872;28;20437;-90
2022/05/18 00:45:58;;;;;;;8.40;7.00;;;;;;;17.01;71.06;101679.69;5077349;28;20320;-91
2022/05/18 00:48:24;;;;;;;8.05;7.00;;;;;;;16.96;71.00;101683.63;5071925;28;20067;-90
2022/05/18 00:50:50;;;;;;;10.50;7.05;;;;;;;16.95;71.30;101684.63;5072445;28;20117;-92
2022/05/18 00:53:24;;;;;;;9.98;7.10;;;;;;;16.89;71.28;101675.97;5065016;28;20024;-91
2022/05/18 00:56:03;;;;;;;12.68;7.30;;;;;;;16.92;71.16;101675.75;5075232;28;20028;-93
2022/05/18 00:58:35;;;;;;;10.75;7.13;;;;;;;16.90;71.26;101677.69;5058344;28;20024;-92
2022/05/18 01:01:01;;;;;;;11.77;7.47;;;;;;;16.88;71.45;101679.59;5056517;28;20546;-91
2022/05/18 01:03:34;;;;;;;8.27;6.30;;;;;;;16.82;71.67;101677.31;5062652;28;20083;-91
2022/05/18 01:06:08;;;;;;;9.40;6.72;;;;;;;16.81;71.58;101678.28;5064337;28;20027;-93
2022/05/18 01:08:39;;;;;;;13.90;6.70;;;;;;;16.78;72.04;101673.09;5068451;28;20024;-91
2022/05/18 01:11:05;;;;;;;12.02;7.00;;;;;;;16.74;72.13;101676.94;5057561;28;20031;-91
2022/05/18 01:13:30;;;;;;;8.75;6.75;;;;;;;16.67;72.24;101687.19;5066019;28;20040;-92
2022/05/18 01:15:56;;;;;;;10.52;6.78;;;;;;;16.66;72.30;101680.09;5067038;28;20047;-90
2022/05/18 01:18:22;;;;;;;11.07;6.80;;;;;;;16.64;72.47;101682.03;5076728;28;20513;-92
2022/05/18 01:20:48;;;;;;;12.00;7.13;;;;;;;16.62;72.45;101681.25;5054671;28;20378;-91
2022/05/18 01:23:40;;;;;;;10.60;7.07;;;;;;;16.60;72.02;101680.50;5068801;28;20159;-92
2022/05/18 01:26:21;;;;;;;10.18;7.20;;;;;;;16.61;71.95;101687.59;5067060;28;20116;-92
2022/05/18 01:28:53;;;;;;;11.30;7.78;;;;;;;16.58;72.58;101682.38;5059426;28;20414;-91
2022/05/18 01:31:36;;;;;;;9.48;6.97;;;;;;;16.59;72.83;101677.88;5064370;28;20059;-92
2022/05/18 01:34:02;;;;;;;10.10;6.75;;;;;;;16.54;72.42;101683.53;5071799;28;20025;-93
2022/05/18 01:36:27;;;;;;;10.25;7.30;;;;;;;16.53;72.33;101678.28;5065512;28;20132;-91
2022/05/18 01:38:52;;;;;;;10.55;7.40;;;;;;;16.47;72.43;101670.56;5069695;28;20386;-92
2022/05/18 01:41:21;;;;;;;10.13;7.45;;;;;;;16.52;73.03;101676.56;5077523;28;20020;-91
2022/05/18 01:43:51;;;;;;;12.25;7.50;;;;;;;16.51;72.61;101677.50;5065206;28;20505;-92
2022/05/18 01:46:19;;;;;;;9.85;7.15;;;;;;;16.46;72.28;101672.41;5065486;28;20036;-91
2022/05/18 01:48:48;;;;;;;10.07;7.60;;;;;;;16.46;72.80;101676.91;5070669;28;20032;-93
2022/05/18 01:51:25;;;;;;;10.75;7.60;;;;;;;16.39;72.44;101687.22;5059007;28;20352;-92
2022/05/18 01:53:50;;;;;;;12.75;8.27;;;;;;;16.41;72.70;101680.75;5064813;28;20296;-92
2022/05/18 01:56:16;;;;;;;11.40;7.90;;;;;;;16.38;72.61;101689.00;5067500;28;20082;-92
2022/05/18 01:58:41;;;;;;;11.30;7.60;;;;;;;16.34;73.39;101678.53;5055031;28;20033;-94
2022/05/18 02:01:06;;;;;;;10.65;7.30;;;;;;;16.30;72.55;101671.63;5061439;28;20024;-91
2022/05/18 02:03:31;;;;;;;10.82;8.40;;;;;;;16.27;73.38;101674.53;5074198;28;20044;-93
2022/05/18 02:05:57;;;;;;;11.20;7.57;;;;;;;16.26;73.57;101681.72;5061578;28;20028;-92
2022/05/18 02:08:22;;;;;;;9.82;7.45;;;;;;;16.21;73.64;101681.13;5058294;28;20049;-92
2022/05/18 02:10:49;;;;;;;9.32;7.65;;;;;;;16.18;73.81;101684.00;5056443;28;20033;-91
2022/05/18 02:13:15;;;;;;;11.00;7.50;;;;;;;16.16;73.37;101684.09;5067493;28;20517;-91
2022/05/18 02:15:40;;;;;;;9.02;7.65;;;;;;;16.16;73.29;101680.53;5063894;28;20148;-91
2022/05/18 02:18:05;;;;;;;12.73;8.00;;;;;;;16.12;73.76;101673.63;5053531;28;20028;-91
2022/05/18 02:20:31;;;;;;;10.82;7.53;;;;;;;16.08;73.53;101674.78;5057806;28;20389;-93
2022/05/18 02:22:56;;;;;;;9.85;8.38;;;;;;;16.07;74.00;101676.59;5075630;28;20038;-93
2022/05/18 02:25:22;;;;;;;12.27;8.70;;;;;;;16.05;74.40;101673.16;5063684;28;20043;-92
2022/05/18 02:27:48;;;;;;;11.80;8.38;;;;;;;16.03;74.28;101672.38;5050728;28;20549;-91
2022/05/18 02:30:15;;;;;;;12.25;8.75;;;;;;;16.07;74.61;101678.41;5058388;28;20029;-92
2022/05/18 02:32:40;;;;;;;10.38;8.27;;;;;;;16.03;74.66;101677.75;5067678;28;20044;-91
2022/05/18 02:35:07;;;;;;;10.13;8.40;;;;;;;16.04;74.67;101678.59;5059717;28;20068;-92
2022/05/18 02:37:33;;;;;;;9.63;8.32;;;;;;;15.96;74.97;101670.13;5062101;28;20028;-92
2022/05/18 02:39:59;;;;;;;11.38;8.15;;;;;;;15.99;74.87;101676.19;5047555;28;20096;-91
2022/05/18 02:42:25;;;;;;;12.20;8.60;;;;;;;16.00;75.26;101679.75;5078749;28;20112;-90
2022/05/18 02:44:50;;;;;;;12.85;8.15;;;;;;;16.01;75.29;101673.41;5066381;28;20045;-93
2022/05/18 02:47:17;;;;;;;11.63;8.93;;;;;;;16.00;75.19;101663.63;5076775;28;20037;-92
2022/05/18 02:49:43;;;;;;;9.13;8.23;;;;;;;16.03;75.13;101663.44;5051735;28;20108;-91
2022/05/18 02:52:08;;;;;;;9.95;8.23;;;;;;;16.02;75.68;101685.91;5067822;28;20111;-92
2022/05/18 02:57:19;;;;;;;10.82;8.45;;;;;;;16.02;75.76;101673.34;5066919;28;20035;-92
2022/05/18 02:59:45;;;;;;;13.50;8.70;;;;;;;15.99;75.58;101673.50;5065650;28;20032;-92
2022/05/18 03:02:10;;;;;;;13.75;8.45;;;;;;;15.98;75.32;101671.78;5069479;28;20027;-92
2022/05/18 03:04:35;;;;;;;11.50;8.95;;;;;;;15.98;75.91;101670.94;5075959;28;20131;-92
2022/05/18 03:07:01;;;;;;;11.98;8.60;;;;;;;15.98;75.65;101687.91;5072941;28;20032;-93
2022/05/18 03:09:27;;;;;;;11.93;8.73;;;;;;;15.95;76.04;101680.03;5064612;28;20021;-92
2022/05/18 03:11:52;;;;;;;12.23;8.88;;;;;;;15.95;75.72;101690.75;5067601;28;20447;-92
2022/05/18 03:14:17;;;;;;;13.48;8.65;;;;;;;15.94;75.97;101692.59;5063878;28;20023;-92
2022/05/18 03:16:44;;;;;;;11.80;8.45;;;;;;;15.94;76.35;101699.78;5085664;28;20028;-92
2022/05/18 03:19:10;;;;;;;11.30;9.35;;;;;;;15.90;76.67;101696.41;5075001;28;20033;-91
2022/05/18 03:24:19;;;;;;;11.57;8.88;;;;;;;15.86;76.29;101696.69;5064779;28;20066;-92
2022/05/18 03:26:44;;;;;;;12.13;8.20;;;;;;;15.84;76.55;101703.94;5064621;28;20021;-92
2022/05/18 03:29:10;;;;;;;12.00;8.23;;;;;;;15.82;76.29;101709.41;5069041;28;20020;-92
2022/05/18 03:31:35;;;;;;;12.93;9.88;;;;;;;15.80;76.89;101707.78;5066542;28;20052;-91
2022/05/18 03:34:00;;;;;;;13.30;9.43;;;;;;;15.84;76.77;101712.00;5082447;28;20690;-92
2022/05/18 03:36:27;;;;;;;10.32;9.00;;;;;;;15.86;76.56;101715.47;5055621;28;20393;-92
2022/05/18 03:38:53;;;;;;;16.65;9.48;;;;;;;15.90;76.79;101717.88;5064147;28;20093;-91
2022/05/18 03:41:18;;;;;;;14.95;9.85;;;;;;;15.92;76.51;101715.09;5067228;28;20035;-91
2022/05/18 03:43:45;;;;;;;12.10;9.98;;;;;;;15.94;76.39;101718.56;5075358;28;20055;-92
2022/05/18 03:46:11;;;;;;;15.20;9.35;;;;;;;15.95;76.19;101720.28;5057786;28;20032;-92
2022/05/18 03:48:38;;;;;;;11.80;10.00;;;;;;;15.91;76.67;101716.91;5059300;28;20028;-91
2022/05/18 03:51:06;;;;;;;13.27;10.23;;;;;;;15.92;76.78;101725.84;5069502;28;20123;-92
2022/05/18 03:53:32;;;;;;;13.93;10.35;;;;;;;15.88;76.58;101730.56;5067207;28;20029;-93
2022/05/18 03:55:58;;;;;;;15.32;10.55;;;;;;;15.84;76.96;101728.09;5060261;28;20405;-92
2022/05/18 03:58:24;;;;;;;13.75;10.73;;;;;;;15.85;77.02;101733.41;5075585;28;20032;-92
2022/05/18 04:00:51;;;;;;;13.60;10.27;;;;;;;15.82;76.74;101730.91;5069280;28;20028;-93
2022/05/18 04:03:19;;;;;;;17.40;11.02;;;;;;;15.84;76.65;101731.69;5077752;28;20134;-92
2022/05/18 04:05:45;;;;;;;11.40;9.98;;;;;;;15.86;76.57;101734.28;5060591;28;20482;-92
2022/05/18 04:08:11;;;;;;;16.30;10.25;;;;;;;15.87;76.60;101733.31;5067735;28;20016;-93
2022/05/18 04:10:38;;;;;;;13.93;10.50;;;;;;;15.88;76.48;101735.91;5071577;28;20025;-92
2022/05/18 04:13:05;;;;;;;12.48;10.63;;;;;;;15.90;76.22;101717.88;5069184;28;20020;-91
2022/05/18 04:15:30;;;;;;;13.30;10.10;;;;;;;15.98;76.41;101736.22;5077390;28;20243;-91
2022/05/18 04:17:56;;;;;;;12.10;10.43;;;;;;;16.01;76.25;101736.06;5073251;28;20086;-92
2022/05/18 04:20:23;;;;;;;16.60;11.18;;;;;;;16.07;76.05;101732.13;5070215;28;20029;-92
2022/05/18 04:22:49;;;;;;;11.00;9.82;;;;;;;16.08;75.78;101726.66;5065342;28;20032;-93
2022/05/18 04:25:18;;;;;;;14.05;9.50;;;;;;;16.18;75.07;101733.22;5065886;28;20032;-91
2022/05/18 04:27:47;;;;;;;13.23;9.88;;;;;;;16.26;74.90;101731.88;5072251;28;20119;-92
2022/05/18 04:30:13;;;;;;;13.82;9.60;;;;;;;16.31;74.81;101735.16;5062668;28;20474;-92
2022/05/18 04:32:39;;;;;;;14.50;9.40;;;;;;;16.38;75.15;101734.66;5061540;28;20098;-92
2022/05/18 04:35:06;;;;;;;13.70;9.45;;;;;;;16.38;74.18;101734.66;5055703;28;20020;-92
2022/05/18 04:37:32;;;;;;;10.65;9.07;;;;;;;16.45;74.35;101743.25;5067050;28;20024;-92
2022/05/18 04:39:57;;;;;;;9.68;8.57;;;;;;;16.54;74.04;101745.34;5068473;28;20391;-92
2022/05/18 04:42:22;;;;;;;11.13;9.32;;;;;;;16.49;73.96;101728.66;5069412;28;20033;-91
2022/05/18 04:44:50;;;;;;;12.00;9.13;;;;;;;16.63;72.83;101749.28;5069861;28;20036;-92
2022/05/18 04:47:15;;;;;;;12.25;8.50;;;;;;;16.69;72.74;101751.63;5060226;28;20020;-91
2022/05/18 04:49:41;;;;;;;11.90;8.85;;;;;;;16.73;72.66;101750.50;5056695;28;20512;-91
2022/05/18 04:52:07;;;;;;;13.52;8.73;;;;;;;16.76;71.95;101752.13;5060360;28;20085;-92
2022/05/18 04:54:34;;;;;;;12.20;7.75;;;;;;;16.84;71.72;101756.06;5050459;28;20041;-91
2022/05/18 04:56:59;;;;;;;12.70;8.55;;;;;;;16.95;71.10;101757.22;5074331;28;20024;-92
2022/05/18 04:59:24;;;;;;;9.20;7.85;;;;;;;17.08;70.62;101758.16;5055382;28;20663;-92
2022/05/18 05:01:49;;;;;;;12.23;7.95;;;;;;;17.27;70.27;101760.56;5071105;28;20070;-92
2022/05/18 05:04:15;;;;;;;11.35;7.93;;;;;;;17.48;69.13;101755.59;5065015;28;20072;-92
2022/05/18 05:06:40;;;;;;;10.52;8.10;;;;;;;17.69;68.15;101762.25;5063210;28;20028;-93
2022/05/18 05:09:06;;;;;;;9.15;7.50;;;;;;;17.92;66.98;101758.91;5067126;28;20174;-91
2022/05/18 05:11:32;;;;;;;13.35;7.85;;;;;;;18.08;67.18;101768.66;5062029;28;20493;-92
2022/05/18 05:13:57;;;;;;;9.68;7.93;;;;;;;18.23;66.54;101770.31;5065315;28;20093;-93
2022/05/18 05:16:23;;;;;;;10.70;7.13;;;;;;;18.39;65.70;101768.31;5066842;28;20029;-92
2022/05/18 05:18:48;;;;;;;8.55;6.93;;;;;;;18.57;65.02;101778.78;5068423;28;20021;-92
2022/05/18 05:21:14;;;;;;;10.93;6.53;;;;;;;18.74;65.11;101770.41;5064103;28;20090;-91
2022/05/18 05:23:39;;;;;;;7.70;6.85;;;;;;;18.97;64.59;101775.97;5070573;28;20024;-92
2022/05/18 05:26:04;;;;;;;8.75;6.60;;;;;;;19.19;63.38;101786.09;5065719;28;20044;-93
2022/05/18 05:28:30;;;;;;;7.70;6.75;;;;;;;19.33;62.66;101788.66;5062427;28;20036;-93
2022/05/18 05:31:02;;;;;;;9.85;7.10;;;;;;;19.45;63.14;101792.31;5059052;28;20047;-92
2022/05/18 05:33:27;;;;;;;9.63;6.82;;;;;;;19.53;62.51;101788.06;5056031;28;20069;-92
2022/05/18 05:35:52;;;;;;;9.43;6.85;;;;;;;19.59;61.73;101790.31;5055174;28;20116;-93
2022/05/18 05:38:17;;;;;;;10.65;7.25;;;;;;;19.64;61.47;101790.84;5065695;28;20381;-90
2022/05/18 05:40:43;;;;;;;10.90;6.95;;;;;;;19.61;62.01;101776.75;5064366;28;20043;-88
2022/05/18 05:43:10;;;;;;;9.60;6.47;;;;;;;19.67;62.04;101783.50;5079523;28;20020;-92
2022/05/18 05:45:37;;;;;;;10.73;6.22;;;;;;;19.67;61.60;101784.38;5062789;28;20029;-91
2022/05/18 05:48:03;;;;;;;8.18;5.68;;;;;;;19.73;60.40;101774.94;5067449;28;20033;-90
2022/05/18 05:50:30;;;;;;;7.15;5.70;;;;;;;19.78;60.61;101792.56;5062052;28;20027;-91
2022/05/18 05:52:56;;;;;;;23.95;16.23;;;;;;;19.90;60.93;101788.06;5060516;28;20664;-91
2022/05/18 05:55:22;;;;;;;9.68;6.47;;;;;;;20.08;60.18;101792.06;5068657;28;20031;-90
2022/05/18 05:57:47;;;;;;;9.25;6.78;;;;;;;20.27;60.10;101791.50;5064257;28;20047;-91
2022/05/18 06:00:13;;;;;;;9.35;6.30;;;;;;;20.57;59.55;101795.59;5062536;28;20032;-91
2022/05/18 06:02:38;;;;;;;9.15;5.80;;;;;;;20.75;57.95;101799.53;5056177;28;20031;-91
2022/05/18 06:05:04;;;;;;;6.88;5.57;;;;;;;20.76;57.83;101803.09;5071421;28;20028;-90
2022/05/18 06:07:31;;;;;;;6.90;5.35;;;;;;;20.75;56.69;101804.97;5073696;28;20203;-91
2022/05/18 06:09:56;;;;;;;10.85;6.30;;;;;;;20.71;56.89;101813.44;5056951;28;20439;-92
2022/05/18 06:12:24;;;;;;;7.78;5.93;;;;;;;20.60;58.06;101806.16;5071588;28;20386;-91
2022/05/18 06:14:50;;;;;;;8.48;7.38;;;;;;;20.55;57.90;101811.06;5070318;28;20414;-91
2022/05/18 06:17:15;;;;;;;12.25;8.48;;;;;;;20.44;57.18;101814.59;5083224;28;20034;-91
2022/05/18 06:19:41;;;;;;;7.93;7.05;;;;;;;20.34;58.18;101806.28;5063734;28;20496;-91
2022/05/18 06:22:06;;;;;;;8.65;6.25;;;;;;;20.34;58.12;101806.28;5060785;28;20041;-91
2022/05/18 06:24:31;;;;;;;17.08;8.50;;;;;;;20.32;58.10;101812.81;5073681;28;20028;-92
2022/05/18 06:26:58;;;;;;;11.23;6.00;;;;;;;20.28;58.57;101830.25;5075804;28;20082;-90
2022/05/18 06:29:23;;;;;;;15.82;6.63;;;;;;;20.27;58.43;101833.91;5081311;28;20024;-90
2022/05/18 06:31:49;;;;;;;8.98;5.35;;;;;;;20.24;58.59;101831.47;5081888;28;20289;-90
2022/05/18 06:34:15;;;;;;;8.15;5.53;;;;;;;20.21;59.01;101831.69;5069483;28;20025;-90
2022/05/18 06:36:40;;;;;;;10.75;6.20;;;;;;;20.23;59.21;101838.72;5083492;28;20434;-91
2022/05/18 06:39:05;;;;;;;7.30;5.28;;;;;;;20.22;58.99;101833.41;5060356;28;20034;-91
2022/05/18 06:41:32;;;;;;;8.60;5.70;;;;;;;20.23;58.81;101837.81;5073141;28;20035;-91
2022/05/18 06:44:02;;;;;;;7.10;5.45;;;;;;;20.30;58.65;101841.78;5075824;28;20028;-92
2022/05/18 06:46:29;;;;;;;6.05;5.32;;;;;;;20.36;58.34;101847.59;5063818;28;20051;-91
2022/05/18 06:48:55;;;;;;;9.90;5.55;;;;;;;20.42;58.26;101842.69;5079022;28;20389;-91
2022/05/18 06:51:26;;;;;;;8.40;5.65;;;;;;;20.48;58.29;101844.94;5061259;28;20032;-91
2022/05/18 06:53:52;;;;;;;7.25;5.68;;;;;;;20.49;57.81;101850.25;5053186;28;20052;-92
2022/05/18 06:56:20;;;;;;;10.02;5.72;;;;;;;20.54;58.71;101849.91;5058556;28;20457;-91
2022/05/18 06:58:47;;;;;;;7.93;5.40;;;;;;;20.63;58.18;101846.50;5078791;28;20032;-91
2022/05/18 07:01:12;;;;;;;8.48;5.80;;;;;;;20.70;58.07;101849.59;5069168;28;20064;-91
2022/05/18 07:03:38;;;;;;;9.65;5.93;;;;;;;20.77;58.21;101848.09;5072801;28;20512;-90
2022/05/18 07:06:04;;;;;;;9.95;5.47;;;;;;;20.86;56.85;101850.97;5069048;28;20041;-91
2022/05/18 07:08:29;;;;;;;9.27;5.45;;;;;;;20.81;56.85;101845.03;5079103;28;20028;-91
2022/05/18 07:10:55;;;;;;;9.77;5.45;;;;;;;20.87;56.75;101855.41;5076861;28;20020;-92
2022/05/18 07:13:20;;;;;;;11.48;5.57;;;;;;;20.85;57.39;101854.66;5076204;28;20157;-92
2022/05/18 07:15:46;;;;;;;8.60;4.90;;;;;;;20.67;57.94;101861.50;5077831;28;20027;-91
2022/05/18 07:18:11;;;;;;;9.85;5.43;;;;;;;20.64;58.10;101868.00;5059992;28;20263;-92
2022/05/18 07:20:37;;;;;;;10.90;5.97;;;;;;;20.72;58.06;101864.72;5067477;28;20036;-92
2022/05/18 07:23:02;;;;;;;10.63;5.70;;;;;;;20.93;57.72;101867.59;5070541;28;20111;-91
2022/05/18 07:25:28;;;;;;;10.43;5.28;;;;;;;21.21;57.13;101868.97;5074556;28;20047;-91
2022/05/18 07:27:53;;;;;;;9.73;5.90;;;;;;;21.51;56.40;101876.50;5053621;28;20040;-91
2022/05/18 07:30:18;;;;;;;10.40;6.60;;;;;;;21.68;55.07;101874.28;5059386;28;20507;-92
2022/05/18 07:32:44;;;;;;;10.27;6.40;;;;;;;21.82;53.96;101880.31;5067083;28;20034;-92
2022/05/18 07:35:09;;;;;;;12.93;7.10;;;;;;;22.02;53.80;101877.78;5062436;28;20411;-90
2022/05/18 07:37:34;;;;;;;9.27;6.32;;;;;;;22.27;53.40;101879.34;5063881;28;20029;-92
2022/05/18 07:40:00;;;;;;;9.35;7.00;;;;;;;22.42;53.00;101879.91;5068439;28;20017;-90
2022/05/18 07:42:25;;;;;;;18.65;9.63;;;;;;;22.36;53.16;101886.69;5062928;28;20096;-91
2022/05/18 07:44:50;;;;;;;13.40;8.63;;;;;;;22.38;54.12;101882.03;5076700;28;20337;-91
2022/05/18 07:47:15;;;;;;;15.98;11.80;;;;;;;22.67;53.14;101874.13;5063457;28;20020;-91
2022/05/18 07:49:42;;;;;;;13.05;8.27;;;;;;;23.12;53.76;101879.31;5056578;28;20455;-91
2022/05/18 07:52:08;;;;;;;10.38;8.00;;;;;;;23.89;50.61;101883.34;5055253;28;20060;-90
2022/05/18 07:54:34;;;;;;;12.38;7.90;;;;;;;24.36;50.40;101876.25;5056365;28;20036;-91
2022/05/18 07:57:00;;;;;;;10.73;7.28;;;;;;;24.98;48.70;101879.50;5059475;28;20024;-90
2022/05/18 07:59:26;;;;;;;10.63;6.95;;;;;;;25.90;46.33;101882.34;5058708;28;20112;-89
2022/05/18 08:01:51;;;;;;;9.98;6.82;;;;;;;26.68;44.07;101890.81;5063733;28;20645;-89
2022/05/18 08:04:17;;;;;;;10.45;6.95;;;;;;;27.27;43.91;101891.09;5066684;28;20044;-89
2022/05/18 08:06:43;;;;;;;9.70;6.95;;;;;;;27.89;41.86;101891.75;5066096;28;20035;-89
2022/05/18 08:09:08;;;;;;;10.55;6.30;;;;;;;27.58;42.28;101885.09;5061832;28;20066;-90
2022/05/18 08:17:02;;;;;;;9.00;6.28;;;;;;;27.77;42.21;101896.66;5058502;28;20040;-90
2022/05/18 08:19:29;;;;;;;8.90;6.32;;;;;;;28.35;40.44;101894.06;5063622;28;20037;-90
2022/05/18 08:21:54;;;;;;;9.25;5.78;;;;;;;28.94;40.04;101901.13;5080800;28;20052;-89
2022/05/18 08:24:19;;;;;;;7.25;4.70;;;;;;;29.91;37.17;101906.53;5062593;28;20082;-90
2022/05/18 08:26:45;;;;;;;16.85;4.80;;;;;;;30.70;36.17;101901.72;5073308;28;20024;-91
2022/05/18 08:29:10;;;;;;;6.18;4.35;;;;;;;31.54;35.86;101896.09;5079898;28;20060;-91
2022/05/18 08:31:35;;;;;;;8.05;4.43;;;;;;;32.08;33.21;101906.75;5086441;28;20107;-90
2022/05/18 08:34:01;;;;;;;9.77;4.55;;;;;;;32.41;32.38;101902.50;5072308;28;20106;-91
2022/05/18 08:36:26;;;;;;;6.75;4.72;;;;;;;32.69;33.03;101901.69;5083640;28;20107;-91
2022/05/18 08:38:55;;;;;;;8.43;4.78;;;;;;;32.87;31.96;101901.22;5077926;28;20024;-91
2022/05/18 08:41:23;;;;;;;7.55;4.50;;;;;;;32.92;31.64;101910.59;5059165;28;20033;-91
2022/05/18 08:43:53;;;;;;;8.25;4.53;;;;;;;33.23;30.68;101906.56;5059633;28;20167;-90
2022/05/18 08:46:26;;;;;;;6.43;4.10;;;;;;;33.35;31.71;101910.47;5065557;28;20028;-90
2022/05/18 08:48:52;;;;;;;;;;;;;;;33.99;31.92;101905.75;5065239;28;21439;-91
2022/05/18 08:51:33;;;;;;;7.47;4.78;;;;;;;33.90;32.26;101916.97;5074159;28;19916;-90
2022/05/18 08:54:07;;;;;;;5.15;3.33;;;;;;;34.51;30.37;101916.09;5063398;28;20496;-90
2022/05/18 08:56:38;;;;;;;6.57;4.18;;;;;;;34.74;30.39;101912.06;5077504;28;20043;-91
2022/05/18 08:59:09;;;;;;;6.32;3.20;;;;;;;34.79;28.99;101917.84;5077714;28;20093;-91
2022/05/18 09:01:41;;;;;;;7.07;4.20;;;;;;;34.57;29.01;101918.03;5074852;28;20024;-91
2022/05/18 09:04:11;;;;;;;4.65;4.10;;;;;;;34.13;28.85;101918.56;5085462;28;20392;-90
2022/05/18 09:06:50;;;;;;;5.28;3.83;;;;;;;32.99;30.83;101915.34;5074017;28;20073;-90
2022/05/18 09:12:06;;;;;;;5.53;3.38;;;;;;;33.89;30.23;101914.41;5064857;28;20514;-91
2022/05/18 09:14:38;;;;;;;5.93;3.70;;;;;;;34.42;29.84;101923.72;5060244;28;20029;-92
2022/05/18 09:17:23;;;;;;;6.70;3.40;;;;;;;35.07;29.22;101914.84;5055160;28;20025;-91
2022/05/18 09:19:56;;;;;;;10.30;4.40;;;;;;;35.09;27.20;101921.03;5079674;28;20278;-91
2022/05/18 09:22:43;;;;;;;5.45;3.95;;;;;;;35.79;28.29;101921.31;5049548;28;20043;-91
2022/05/18 09:25:23;;;;;;;5.78;4.10;;;;;;;36.31;26.25;101917.44;5057950;28;20039;-91
2022/05/18 09:28:08;;;;;;;7.55;3.97;;;;;;;36.45;27.24;101907.13;5053625;28;20020;-89
2022/05/18 09:30:48;;;;;;;10.32;7.05;;;;;;;36.88;25.58;101910.00;5058293;28;20029;-93
2022/05/18 09:33:37;;;;;;;11.48;6.82;;;;;;;37.90;26.84;101908.72;5061172;28;20097;-91
2022/05/18 09:36:17;;;;;;;8.15;4.35;;;;;;;37.42;24.74;101918.69;5084644;28;20040;-92
2022/05/18 09:38:45;;;;;;;5.80;4.13;;;;;;;36.33;25.76;101914.47;5065484;28;20032;-92
2022/05/18 09:41:16;;;;;;;8.60;4.55;;;;;;;35.94;26.71;101905.25;5073569;28;20048;-92
2022/05/18 09:43:53;;;;;;;7.10;3.78;;;;;;;36.97;25.94;101916.13;5071815;28;20630;-91
2022/05/18 09:46:22;;;;;;;6.50;3.60;;;;;;;37.91;24.42;101911.25;5055292;28;20051;-92
2022/05/18 09:49:00;;;;;;;6.20;4.07;;;;;;;38.78;24.18;101920.06;5063932;28;20473;-91
2022/05/18 09:51:26;;;;;;;4.50;3.45;;;;;;;39.14;22.16;101917.28;5052764;28;20031;-90
2022/05/18 09:53:51;;;;;;;5.97;3.42;;;;;;;38.48;22.53;101917.31;5060233;28;20025;-88
2022/05/18 09:56:28;;;;;;;6.53;3.95;;;;;;;39.21;21.99;101916.06;5065617;28;20051;-91
2022/05/18 09:58:59;;;;;;;5.63;3.80;;;;;;;39.05;21.80;101906.53;5067756;28;20042;-88
2022/05/18 10:09:51;;;;;;;5.72;3.63;;;;;;;38.98;22.04;101928.06;5065424;28;20055;-92
2022/05/18 10:12:24;;;;;;;4.30;3.67;;;;;;;39.09;22.24;101915.25;5061100;28;20016;-91
2022/05/18 10:14:51;;;;;;;;;;;;;;;40.08;22.37;101926.31;5064427;28;20477;-93
2022/05/18 10:17:21;;;;;;;6.03;3.50;;;;;;;39.55;21.91;101927.44;5063529;28;19942;-95
2022/05/18 10:20:00;;;;;;;7.72;4.28;;;;;;;39.31;22.74;101924.69;5084509;28;21511;-92
2022/05/18 10:22:29;;;;;;;5.97;4.00;;;;;;;39.69;21.86;101926.09;5055798;28;20083;-95
2022/05/18 10:24:57;;;;;;;5.47;4.63;;;;;;;39.43;21.63;101924.69;5059438;28;20067;-94
2022/05/18 10:27:30;;;;;;;6.30;4.70;;;;;;;39.43;21.85;101923.84;5056586;28;20024;-94
2022/05/18 10:30:13;;;;;;;5.00;4.50;;;;;;;40.05;21.58;101915.69;5067109;28;20290;-92
2022/05/18 10:33:21;;;;;;;5.38;3.80;;;;;;;41.12;21.35;101909.22;5061995;28;20044;-93
2022/05/18 10:35:52;;;;;;;6.60;4.00;;;;;;;40.93;20.62;101913.38;5041178;28;20033;-92
2022/05/18 10:38:32;;;;;;;4.45;3.30;;;;;;;41.68;20.24;101907.22;5046290;28;20024;-92
2022/05/18 10:41:09;;;;;;;6.38;3.33;;;;;;;41.91;20.54;101906.09;5045302;28;20474;-93
2022/05/18 10:43:35;;;;;;;3.75;2.90;;;;;;;42.49;18.98;101915.69;5038434;28;20507;-92
2022/05/18 10:46:11;;;;;;;5.50;3.50;;;;;;;41.96;19.16;101908.94;5043746;28;20025;-91
2022/05/18 10:48:37;;;;;;;5.40;3.67;;;;;;;41.53;19.25;101907.84;5040290;28;20482;-95
2022/05/18 10:51:11;;;;;;;4.40;3.72;;;;;;;41.88;19.25;101895.44;5045985;28;20029;-92
2022/05/18 10:53:39;;;;;;;5.40;3.80;;;;;;;42.35;18.56;101897.66;5033030;28;20519;-93
2022/05/18 10:56:08;;;;;;;5.22;3.72;;;;;;;42.97;17.63;101894.22;5048904;28;20108;-91
2022/05/18 10:58:45;;;;;;;6.78;3.47;;;;;;;43.35;17.62;101891.38;5041753;28;20030;-93
2022/05/18 11:01:22;;;;;;;6.63;3.40;;;;;;;43.43;17.98;101890.84;5043094;28;20134;-91
2022/05/18 11:04:13;;;;;;;5.88;3.92;;;;;;;43.38;18.51;101896.44;5040726;28;20227;-93
2022/05/18 11:06:40;;;;;;;5.70;3.78;;;;;;;42.28;18.14;101894.22;5052887;28;20486;-88
2022/05/18 11:09:22;;;;;;;3.65;3.22;;;;;;;42.15;19.19;101886.22;5063199;28;20033;-89
2022/05/18 11:11:57;;;;;;;4.43;3.85;;;;;;;42.13;18.61;101882.84;5054888;28;20024;-91
2022/05/18 11:14:45;;;;;;;3.60;2.90;;;;;;;42.86;18.93;101888.84;5055317;28;20028;-90
2022/05/18 11:17:45;;;;;;;4.93;3.20;;;;;;;43.53;18.54;101890.09;5064239;28;20064;-92
2022/05/18 11:20:25;;;;;;;4.88;3.17;;;;;;;43.68;17.93;101890.16;5069732;28;20111;-91
2022/05/18 11:23:08;;;;;;;3.58;2.97;;;;;;;44.77;17.99;101879.66;5067366;28;20418;-91
2022/05/18 11:26:07;;;;;;;4.63;3.00;;;;;;;45.43;16.33;101878.69;5056810;28;20097;-90
2022/05/18 11:28:40;;;;;;;3.55;2.97;;;;;;;45.20;15.94;101881.00;5043492;28;20577;-90
2022/05/18 11:31:11;;;;;;;4.80;3.80;;;;;;;44.70;15.87;101879.13;5062262;28;20033;-90
2022/05/18 11:33:50;;;;;;;4.95;3.15;;;;;;;44.77;16.96;101871.22;5063293;28;20708;-90
2022/05/18 11:36:31;;;;;;;7.28;3.63;;;;;;;44.95;17.05;101870.66;5064353;28;20032;-91
2022/05/18 11:39:10;;;;;;;3.90;2.65;;;;;;;44.72;17.19;101871.25;5068473;28;20033;-90
2022/05/18 11:42:03;;;;;;;5.90;2.97;;;;;;;44.39;16.40;101873.47;5069645;28;20482;-90
2022/05/18 11:44:42;;;;;;;6.82;3.45;;;;;;;42.39;18.19;101879.22;5063025;28;20037;-89
2022/05/18 11:47:36;;;;;;;4.50;3.90;;;;;;;41.69;19.40;101874.53;5063789;28;20051;-90
2022/05/18 11:50:19;;;;;;;5.78;4.70;;;;;;;40.45;19.41;101868.19;5058225;28;20030;-89
2022/05/18 11:53:08;;;;;;;4.70;3.88;;;;;;;39.63;21.18;101859.31;5069251;28;20473;-89